Time;durP1;ratioP1;P1;durP2;ratioP2;P2;SDS_P1;SDS_P2;PMS_P1;PMS_P2;Temp;Humidity;BMP_temperature;BMP_pressure;BME280_temperature;BME280_humidity;BME280_pressure;Samples;Min_cycle;Max_cycle;Signal;HPM_P1;HPM_P2
2023/12/06 00:01:26;;;;;;;;;;;12.90;99.90;;;;;;5089605;28;20046;-71
2023/12/06 00:03:52;;;;;;;;;;;12.80;99.90;;;;;;5108160;28;20274;-71
2023/12/06 00:06:18;;;;;;;;;;;12.80;99.90;;;;;;5092851;28;19908;-71
2023/12/06 00:08:44;;;;;;;;;;;12.80;99.90;;;;;;5092758;28;19908;-70
2023/12/06 00:11:09;;;;;;;;;;;12.70;99.90;;;;;;5127197;27;19922;-74
2023/12/06 00:13:35;;;;;;;;;;;12.70;99.90;;;;;;5111383;28;19951;-71
2023/12/06 00:16:01;;;;;;;;;;;12.60;99.90;;;;;;5111459;28;19961;-71
2023/12/06 00:18:27;;;;;;;;;;;12.70;99.90;;;;;;5111188;28;19908;-71
2023/12/06 00:20:53;;;;;;;;;;;12.60;99.90;;;;;;5103394;28;19927;-71
2023/12/06 00:23:19;;;;;;;;;;;12.60;99.90;;;;;;5085754;28;19912;-70
2023/12/06 00:25:45;;;;;;;;;;;12.60;99.90;;;;;;5072375;28;20336;-69
2023/12/06 00:28:11;;;;;;;;;;;12.60;99.90;;;;;;5090733;28;20016;-72
2023/12/06 00:30:36;;;;;;;;;;;12.60;99.90;;;;;;5090536;28;20351;-71
2023/12/06 00:33:03;;;;;;;;;;;12.60;99.90;;;;;;5090480;28;19912;-70
2023/12/06 00:35:29;;;;;;;;;;;12.60;99.90;;;;;;5090539;28;19908;-72
2023/12/06 00:37:55;;;;;;;;;;;12.70;99.90;;;;;;5090848;28;19955;-72
2023/12/06 00:40:20;;;;;;;;;;;12.80;99.90;;;;;;5090795;28;19908;-71
2023/12/06 00:42:47;;;;;;;;;;;12.80;99.90;;;;;;5090537;28;19909;-72
2023/12/06 00:45:13;;;;;;;;;;;12.90;99.90;;;;;;5090593;28;19918;-72
2023/12/06 00:47:39;;;;;;;;;;;12.90;99.90;;;;;;5090406;28;19990;-73
2023/12/06 00:50:06;;;;;;;;;;;12.90;99.90;;;;;;5090766;28;19923;-72
2023/12/06 00:52:31;;;;;;;;;;;12.90;99.90;;;;;;5090540;28;19909;-71
2023/12/06 00:54:57;;;;;;;;;;;12.90;99.90;;;;;;5072589;28;19931;-72
2023/12/06 00:57:24;;;;;;;;;;;12.90;99.90;;;;;;5090528;28;19908;-72
2023/12/06 00:59:50;;;;;;;;;;;12.90;99.90;;;;;;5090281;28;19931;-72
2023/12/06 01:02:16;;;;;;;;;;;13.00;99.90;;;;;;5089380;28;19916;-72
2023/12/06 01:04:41;;;;;;;;;;;12.90;99.90;;;;;;5071925;28;20252;-72
2023/12/06 01:07:07;;;;;;;;;;;12.90;99.90;;;;;;5090195;28;19918;-71
2023/12/06 01:09:33;;;;;;;;;;;12.90;99.90;;;;;;5089868;28;20332;-71
2023/12/06 01:11:59;;;;;;;;;;;12.90;99.90;;;;;;5089738;28;19912;-71
2023/12/06 01:14:24;;;;;;;;;;;12.90;99.90;;;;;;5090517;28;19999;-71
2023/12/06 01:16:50;;;;;;;;;;;12.90;99.90;;;;;;5090330;28;19930;-71
2023/12/06 01:19:16;;;;;;;;;;;12.90;99.90;;;;;;5090143;28;20364;-71
2023/12/06 01:21:42;;;;;;;;;;;12.90;99.90;;;;;;5075377;28;19931;-70
2023/12/06 01:24:08;;;;;;;;;;;12.80;99.90;;;;;;5069811;28;20308;-71
2023/12/06 01:26:34;;;;;;;;;;;12.80;99.90;;;;;;5069705;28;20328;-70
2023/12/06 01:29:03;;;;;;;;;;;12.80;99.90;;;;;;5051549;28;19963;-71
2023/12/06 01:31:29;;;;;;;;;;;12.80;99.90;;;;;;5069988;28;19927;-71
2023/12/06 01:33:55;;;;;;;;;;;12.80;99.90;;;;;;5069705;28;20347;-71
2023/12/06 01:36:21;;;;;;;;;;;12.70;99.90;;;;;;5072144;28;19909;-72
2023/12/06 01:38:48;;;;;;;;;;;12.70;99.90;;;;;;5073349;28;19908;-71
2023/12/06 01:41:13;;;;;;;;;;;12.70;99.90;;;;;;5073150;28;20284;-70
2023/12/06 01:43:45;;;;;;;;;;;12.70;99.90;;;;;;5055188;28;19915;-71
2023/12/06 01:46:12;;;;;;;;;;;12.70;99.90;;;;;;5055122;28;19916;-70
2023/12/06 01:48:38;;;;;;;;;;;12.70;99.90;;;;;;5073254;28;19909;-72
2023/12/06 01:51:05;;;;;;;;;;;12.70;99.90;;;;;;5064585;28;19916;-71
2023/12/06 01:53:31;;;;;;;;;;;12.80;99.90;;;;;;5073227;28;19932;-70
2023/12/06 01:55:58;;;;;;;;;;;12.80;99.90;;;;;;5073109;28;20008;-71
2023/12/06 01:58:24;;;;;;;;;;;12.80;99.90;;;;;;5073021;28;20001;-71
2023/12/06 02:00:50;;;;;;;;;;;12.80;99.90;;;;;;5086648;28;19987;-71
2023/12/06 02:03:15;;;;;;;;;;;12.80;99.90;;;;;;5073183;28;20026;-71
2023/12/06 02:05:42;;;;;;;;;;;12.80;99.90;;;;;;5093421;28;19955;-70
2023/12/06 02:08:08;;;;;;;;;;;12.70;99.90;;;;;;5093221;28;19930;-71
2023/12/06 02:10:34;;;;;;;;;;;12.70;99.90;;;;;;5092889;28;20446;-71
2023/12/06 02:13:00;;;;;;;;;;;12.70;99.90;;;;;;5074687;28;19914;-71
2023/12/06 02:15:25;;;;;;;;;;;12.70;99.90;;;;;;5093107;28;19973;-71
2023/12/06 02:17:52;;;;;;;;;;;12.70;99.90;;;;;;5092639;28;20000;-71
2023/12/06 02:20:18;;;;;;;;;;;12.70;99.90;;;;;;5092681;28;20014;-70
2023/12/06 02:22:44;;;;;;;;;;;12.70;99.90;;;;;;5083339;28;19916;-71
2023/12/06 02:25:14;;;;;;;;;;;12.70;99.90;;;;;;5054285;28;20471;-70
2023/12/06 02:27:43;;;;;;;;;;;12.70;99.90;;;;;;5072620;28;20003;-70
2023/12/06 02:30:11;;;;;;;;;;;12.60;99.90;;;;;;5053994;28;20027;-71
2023/12/06 02:32:39;;;;;;;;;;;12.60;99.90;;;;;;5053974;28;19969;-71
2023/12/06 02:35:18;;;;;;;;;;;12.50;99.90;;;;;;5054821;28;19909;-71
2023/12/06 02:37:45;;;;;;;;;;;12.50;99.90;;;;;;5072224;28;19913;-70
2023/12/06 02:40:12;;;;;;;;;;;12.50;99.90;;;;;;5072332;28;19909;-73
2023/12/06 02:42:38;;;;;;;;;;;12.50;99.90;;;;;;5072333;28;19951;-71
2023/12/06 02:45:04;;;;;;;;;;;12.50;99.90;;;;;;5054179;28;19912;-71
2023/12/06 02:47:31;;;;;;;;;;;12.50;99.90;;;;;;5071734;28;19996;-71
2023/12/06 02:49:56;;;;;;;;;;;12.50;99.90;;;;;;5071817;28;19920;-72
2023/12/06 02:52:22;;;;;;;;;;;12.50;99.90;;;;;;5073645;28;19956;-71
2023/12/06 02:54:50;;;;;;;;;;;12.50;99.90;;;;;;5072029;28;19921;-71
2023/12/06 02:57:16;;;;;;;;;;;12.40;99.90;;;;;;5071761;28;19975;-71
2023/12/06 02:59:41;;;;;;;;;;;12.40;99.90;;;;;;5073871;28;20332;-71
2023/12/06 03:02:08;;;;;;;;;;;12.40;99.90;;;;;;5094480;28;20014;-71
2023/12/06 03:04:34;;;;;;;;;;;12.30;99.90;;;;;;5112106;28;20015;-72
2023/12/06 03:07:01;;;;;;;;;;;12.30;99.90;;;;;;5112518;28;19919;-71
2023/12/06 03:09:27;;;;;;;;;;;12.20;99.90;;;;;;5112155;28;20013;-71
2023/12/06 03:11:53;;;;;;;;;;;12.20;99.90;;;;;;5112131;28;19951;-70
2023/12/06 03:14:19;;;;;;;;;;;12.10;99.90;;;;;;5112261;28;20381;-70
2023/12/06 03:16:45;;;;;;;;;;;12.20;99.90;;;;;;5112095;28;19982;-70
2023/12/06 03:19:11;;;;;;;;;;;12.20;99.90;;;;;;5111700;28;19971;-70
2023/12/06 03:21:37;;;;;;;;;;;12.20;99.90;;;;;;5097085;28;20360;-69
2023/12/06 03:24:03;;;;;;;;;;;12.20;99.90;;;;;;5091293;28;19916;-70
2023/12/06 03:26:29;;;;;;;;;;;12.20;99.90;;;;;;5091228;28;19908;-70
2023/12/06 03:28:55;;;;;;;;;;;12.20;99.90;;;;;;5091187;28;19908;-70
2023/12/06 03:31:20;;;;;;;;;;;12.20;99.90;;;;;;5091193;28;19927;-70
2023/12/06 03:33:47;;;;;;;;;;;12.20;99.90;;;;;;5107625;28;19915;-71
2023/12/06 03:36:13;;;;;;;;;;;12.10;99.90;;;;;;5112041;28;20000;-71
2023/12/06 03:38:39;;;;;;;;;;;12.10;99.90;;;;;;5127431;27;20332;-71
2023/12/06 03:41:05;;;;;;;;;;;12.10;99.90;;;;;;5111722;28;19908;-71
2023/12/06 03:43:31;;;;;;;;;;;12.10;99.90;;;;;;5111324;28;20010;-70
2023/12/06 03:45:56;;;;;;;;;;;12.10;99.90;;;;;;5127070;27;20002;-71
2023/12/06 03:48:22;;;;;;;;;;;12.00;99.90;;;;;;5092879;28;19908;-70
2023/12/06 03:50:49;;;;;;;;;;;12.00;99.90;;;;;;5100491;28;20477;-70
2023/12/06 03:53:18;;;;;;;;;;;12.00;99.90;;;;;;5072442;28;19908;-70
2023/12/06 03:55:44;;;;;;;;;;;12.00;99.90;;;;;;5091398;28;19908;-71
2023/12/06 03:58:11;;;;;;;;;;;12.00;99.90;;;;;;5091208;28;19938;-70
2023/12/06 04:00:38;;;;;;;;;;;12.00;99.90;;;;;;5091299;28;19928;-71
2023/12/06 04:03:07;;;;;;;;;;;12.00;99.90;;;;;;5101786;28;20046;-71
2023/12/06 04:05:33;;;;;;;;;;;11.90;99.90;;;;;;5112015;28;19908;-71
2023/12/06 04:07:58;;;;;;;;;;;12.00;99.90;;;;;;5128282;27;19938;-72
2023/12/06 04:10:24;;;;;;;;;;;11.90;99.90;;;;;;5112552;28;19923;-71
2023/12/06 04:12:50;;;;;;;;;;;11.80;99.90;;;;;;5112752;28;19912;-72
2023/12/06 04:15:16;;;;;;;;;;;11.80;99.90;;;;;;5112623;28;19930;-71
2023/12/06 04:17:41;;;;;;;;;;;11.80;99.90;;;;;;5113037;28;19907;-71
2023/12/06 04:20:08;;;;;;;;;;;11.90;99.90;;;;;;5111066;28;19912;-71
2023/12/06 04:22:34;;;;;;;;;;;11.90;99.90;;;;;;5092151;28;20306;-70
2023/12/06 04:25:01;;;;;;;;;;;11.90;99.90;;;;;;5093665;28;19914;-71
2023/12/06 04:27:26;;;;;;;;;;;11.90;99.90;;;;;;5093260;28;19915;-72
2023/12/06 04:29:52;;;;;;;;;;;11.80;99.90;;;;;;5093172;28;19912;-72
2023/12/06 04:32:18;;;;;;;;;;;11.90;99.90;;;;;;5097333;28;20014;-69
2023/12/06 04:34:54;;;;;;;;;;;11.90;99.90;;;;;;5113427;28;19915;-72
2023/12/06 04:37:20;;;;;;;;;;;11.90;99.90;;;;;;5113768;28;20358;-72
2023/12/06 04:39:46;;;;;;;;;;;11.90;99.90;;;;;;5129583;28;19908;-71
2023/12/06 04:42:12;;;;;;;;;;;11.80;99.90;;;;;;5113415;28;20292;-72
2023/12/06 04:44:38;;;;;;;;;;;11.90;99.90;;;;;;5113508;28;20228;-71
2023/12/06 04:47:04;;;;;;;;;;;11.80;99.90;;;;;;5113459;28;19912;-71
2023/12/06 04:49:30;;;;;;;;;;;11.80;99.90;;;;;;5113107;28;19915;-71
2023/12/06 04:51:56;;;;;;;;;;;11.90;99.90;;;;;;5113752;28;19911;-71
2023/12/06 04:54:24;;;;;;;;;;;11.90;99.90;;;;;;5113303;28;19915;-73
2023/12/06 04:56:50;;;;;;;;;;;11.80;99.90;;;;;;5113176;28;19914;-71
2023/12/06 04:59:16;;;;;;;;;;;11.80;99.90;;;;;;5113133;28;19908;-72
2023/12/06 05:01:43;;;;;;;;;;;11.80;99.90;;;;;;5113023;28;20397;-71
2023/12/06 05:04:11;;;;;;;;;;;11.80;99.90;;;;;;5093068;28;19998;-71
2023/12/06 05:06:37;;;;;;;;;;;11.80;99.90;;;;;;5092113;28;19983;-71
2023/12/06 05:09:10;;;;;;;;;;;11.80;99.90;;;;;;5092491;28;19955;-71
2023/12/06 05:11:36;;;;;;;;;;;11.80;99.90;;;;;;5096529;28;20459;-71
2023/12/06 05:14:02;;;;;;;;;;;11.80;99.90;;;;;;5096331;28;19954;-71
2023/12/06 05:16:28;;;;;;;;;;;11.80;99.90;;;;;;5096043;28;20317;-71
2023/12/06 05:18:54;;;;;;;;;;;11.80;99.90;;;;;;5096961;28;20334;-71
2023/12/06 05:21:20;;;;;;;;;;;11.80;99.90;;;;;;5096889;28;19908;-71
2023/12/06 05:23:48;;;;;;;;;;;11.80;99.90;;;;;;5078849;28;19915;-72
2023/12/06 05:26:14;;;;;;;;;;;11.80;99.90;;;;;;5097335;28;19935;-72
2023/12/06 05:28:40;;;;;;;;;;;11.70;99.90;;;;;;5097116;28;20356;-71
2023/12/06 05:31:06;;;;;;;;;;;11.70;99.90;;;;;;5096550;28;19916;-72
2023/12/06 05:33:32;;;;;;;;;;;11.70;99.90;;;;;;5110872;28;20381;-70
2023/12/06 05:35:58;;;;;;;;;;;11.70;99.90;;;;;;5117503;28;19915;-70
2023/12/06 05:38:23;;;;;;;;;;;11.60;99.90;;;;;;5132688;27;19911;-69
2023/12/06 05:40:50;;;;;;;;;;;11.60;99.90;;;;;;5117155;28;19908;-69
2023/12/06 05:43:15;;;;;;;;;;;11.80;99.90;;;;;;5116727;28;19999;-71
2023/12/06 05:45:41;;;;;;;;;;;11.90;99.90;;;;;;5117220;28;20339;-71
2023/12/06 05:48:07;;;;;;;;;;;12.00;99.90;;;;;;5116168;28;19908;-71
2023/12/06 05:50:36;;;;;;;;;;;12.10;99.90;;;;;;5111839;28;19916;-70
2023/12/06 05:53:03;;;;;;;;;;;12.00;99.90;;;;;;5077746;28;19916;-71
2023/12/06 05:55:29;;;;;;;;;;;12.00;99.90;;;;;;5077831;28;19908;-69
2023/12/06 05:57:57;;;;;;;;;;;11.90;99.90;;;;;;5095360;28;19912;-68
2023/12/06 06:00:24;;;;;;;;;;;11.90;99.90;;;;;;5091487;28;20037;-72
2023/12/06 06:02:55;;;;;;;;;;;12.00;99.90;;;;;;5104624;28;19994;-71
2023/12/06 06:05:22;;;;;;;;;;;12.00;99.90;;;;;;5114193;28;20327;-68
2023/12/06 06:07:48;;;;;;;;;;;12.00;99.90;;;;;;5095149;28;19908;-72
2023/12/06 06:10:13;;;;;;;;;;;12.00;99.90;;;;;;5095978;28;19943;-70
2023/12/06 06:12:39;;;;;;;;;;;12.00;99.90;;;;;;5077155;28;19908;-71
2023/12/06 06:15:05;;;;;;;;;;;12.10;99.90;;;;;;5095463;28;19994;-71
2023/12/06 06:17:31;;;;;;;;;;;12.20;99.90;;;;;;5095761;28;19915;-71
2023/12/06 06:19:57;;;;;;;;;;;12.20;99.90;;;;;;5095189;28;19908;-70
2023/12/06 06:22:24;;;;;;;;;;;12.10;99.90;;;;;;5074745;28;19939;-71
2023/12/06 06:24:50;;;;;;;;;;;12.00;99.90;;;;;;5074624;28;19916;-73
2023/12/06 06:27:16;;;;;;;;;;;11.80;99.90;;;;;;5074766;28;19966;-69
2023/12/06 06:29:44;;;;;;;;;;;11.80;99.90;;;;;;5074424;28;20318;-69
2023/12/06 06:32:10;;;;;;;;;;;11.80;99.90;;;;;;5080369;28;20398;-69
2023/12/06 06:34:36;;;;;;;;;;;11.90;99.90;;;;;;5114858;28;19934;-69
2023/12/06 06:37:02;;;;;;;;;;;11.90;99.90;;;;;;5115200;28;19908;-69
2023/12/06 06:39:28;;;;;;;;;;;12.00;99.90;;;;;;5117506;27;19956;-70
2023/12/06 06:41:54;;;;;;;;;;;12.10;99.90;;;;;;5094155;28;19912;-68
2023/12/06 06:44:21;;;;;;;;;;;12.10;99.90;;;;;;5093928;28;19939;-69
2023/12/06 06:46:46;;;;;;;;;;;12.20;99.90;;;;;;5094512;28;19908;-69
2023/12/06 06:49:12;;;;;;;;;;;12.20;99.90;;;;;;5093713;28;20398;-73
2023/12/06 06:51:38;;;;;;;;;;;12.20;99.90;;;;;;5080180;28;19923;-73
2023/12/06 06:54:05;;;;;;;;;;;12.30;99.90;;;;;;5072089;28;19912;-73
2023/12/06 06:56:30;;;;;;;;;;;12.40;99.90;;;;;;5073103;28;19908;-73
2023/12/06 06:58:57;;;;;;;;;;;12.50;99.90;;;;;;5072912;28;20281;-73
2023/12/06 07:01:22;;;;;;;;;;;12.60;99.90;;;;;;5072803;28;19927;-74
2023/12/06 07:03:48;;;;;;;;;;;12.80;99.90;;;;;;5089398;28;19998;-73
2023/12/06 07:06:14;;;;;;;;;;;12.70;99.90;;;;;;5093703;28;19919;-74
2023/12/06 07:08:40;;;;;;;;;;;12.70;99.90;;;;;;5093516;28;19908;-73
2023/12/06 07:11:07;;;;;;;;;;;12.80;99.90;;;;;;5092668;28;20241;-74
2023/12/06 07:13:34;;;;;;;;;;;12.80;99.90;;;;;;5093067;28;20356;-74
2023/12/06 07:16:00;;;;;;;;;;;13.00;99.90;;;;;;5092946;28;19915;-75
2023/12/06 07:18:27;;;;;;;;;;;13.10;99.90;;;;;;5093410;28;19912;-74
2023/12/06 07:20:53;;;;;;;;;;;13.20;99.90;;;;;;5093492;28;19992;-73
2023/12/06 07:23:18;;;;;;;;;;;13.20;99.90;;;;;;5093498;28;20379;-73
2023/12/06 07:25:45;;;;;;;;;;;13.20;99.90;;;;;;5093538;28;20389;-73
2023/12/06 07:28:12;;;;;;;;;;;13.10;99.90;;;;;;5093784;28;20038;-74
2023/12/06 07:30:37;;;;;;;;;;;13.10;99.90;;;;;;5091868;28;20284;-71
2023/12/06 07:33:03;;;;;;;;;;;13.10;99.90;;;;;;5103233;28;19919;-74
2023/12/06 07:35:29;;;;;;;;;;;13.20;99.90;;;;;;5113455;28;20016;-73
2023/12/06 07:37:55;;;;;;;;;;;13.10;99.90;;;;;;5113367;28;20385;-74
2023/12/06 07:40:21;;;;;;;;;;;13.10;99.90;;;;;;5113667;28;19914;-73
2023/12/06 07:42:48;;;;;;;;;;;13.00;99.90;;;;;;5113805;28;20356;-75
2023/12/06 07:45:14;;;;;;;;;;;12.80;99.90;;;;;;5113592;28;20295;-75
2023/12/06 07:47:40;;;;;;;;;;;12.70;99.90;;;;;;5113092;28;20378;-73
2023/12/06 07:50:07;;;;;;;;;;;12.60;99.90;;;;;;5111625;28;20318;-72
2023/12/06 07:52:33;;;;;;;;;;;12.70;99.90;;;;;;5092701;28;19916;-75
2023/12/06 07:54:59;;;;;;;;;;;12.80;99.90;;;;;;5092991;28;19909;-73
2023/12/06 07:57:28;;;;;;;;;;;12.90;99.90;;;;;;5092578;28;19920;-72
2023/12/06 07:59:55;;;;;;;;;;;12.90;99.90;;;;;;5092565;28;20390;-74
2023/12/06 08:02:21;;;;;;;;;;;12.90;99.90;;;;;;5096756;28;19907;-73
2023/12/06 08:04:47;;;;;;;;;;;12.80;99.90;;;;;;5128489;27;19914;-74
2023/12/06 08:07:13;;;;;;;;;;;12.70;99.90;;;;;;5094461;28;19908;-75
2023/12/06 08:09:40;;;;;;;;;;;12.70;99.90;;;;;;5112508;28;20367;-75
2023/12/06 08:12:07;;;;;;;;;;;12.80;99.90;;;;;;5094265;28;20002;-73
2023/12/06 08:14:34;;;;;;;;;;;12.80;99.90;;;;;;5112826;28;19908;-73
2023/12/06 08:17:00;;;;;;;;;;;13.10;99.90;;;;;;5112784;28;19994;-74
2023/12/06 08:19:26;;;;;;;;;;;13.30;99.90;;;;;;5094039;28;19943;-73
2023/12/06 08:21:52;;;;;;;;;;;13.50;99.90;;;;;;5096501;28;19908;-75
2023/12/06 08:24:18;;;;;;;;;;;13.50;99.90;;;;;;5092141;28;19908;-74
2023/12/06 08:26:44;;;;;;;;;;;13.60;99.90;;;;;;5092506;28;19974;-75
2023/12/06 08:29:11;;;;;;;;;;;13.80;99.90;;;;;;5092662;28;19909;-73
2023/12/06 08:31:37;;;;;;;;;;;13.80;99.90;;;;;;5092919;28;19916;-74
2023/12/06 08:34:03;;;;;;;;;;;14.00;99.90;;;;;;5074386;28;19916;-74
2023/12/06 08:36:29;;;;;;;;;;;14.00;99.90;;;;;;5074181;28;19935;-73
2023/12/06 08:38:55;;;;;;;;;;;14.20;99.90;;;;;;5091962;28;19916;-75
2023/12/06 08:41:22;;;;;;;;;;;14.40;99.90;;;;;;5092597;28;19909;-74
2023/12/06 08:43:47;;;;;;;;;;;14.50;99.90;;;;;;5092430;28;19995;-75
2023/12/06 08:46:13;;;;;;;;;;;14.60;99.90;;;;;;5096375;28;20004;-74
2023/12/06 08:48:39;;;;;;;;;;;14.60;99.90;;;;;;5077764;28;19908;-74
2023/12/06 08:51:05;;;;;;;;;;;14.80;99.90;;;;;;5077211;28;19978;-74
2023/12/06 08:53:31;;;;;;;;;;;14.90;99.90;;;;;;5095927;28;20006;-75
2023/12/06 08:55:56;;;;;;;;;;;14.70;99.90;;;;;;5096323;28;19912;-73
2023/12/06 08:58:23;;;;;;;;;;;14.60;99.90;;;;;;5096313;28;19908;-73
2023/12/06 09:00:48;;;;;;;;;;;14.60;99.90;;;;;;5095993;28;19974;-73
2023/12/06 09:03:14;;;;;;;;;;;14.60;99.90;;;;;;5108675;28;19919;-73
2023/12/06 09:05:40;;;;;;;;;;;14.60;99.90;;;;;;5116688;28;20011;-75
2023/12/06 09:08:06;;;;;;;;;;;14.70;99.90;;;;;;5098131;28;19908;-75
2023/12/06 09:10:32;;;;;;;;;;;14.90;99.90;;;;;;5116311;28;19922;-72
2023/12/06 09:12:58;;;;;;;;;;;14.90;99.90;;;;;;5116776;28;20411;-76
2023/12/06 09:15:24;;;;;;;;;;;14.40;99.90;;;;;;5116335;28;20031;-73
2023/12/06 09:17:49;;;;;;;;;;;14.40;99.90;;;;;;5098158;28;19915;-75
2023/12/06 09:20:18;;;;;;;;;;;14.50;99.90;;;;;;5116092;28;20012;-75
2023/12/06 09:22:44;;;;;;;;;;;14.70;99.90;;;;;;5116799;28;20264;-74
2023/12/06 09:25:10;;;;;;;;;;;14.80;99.90;;;;;;5116366;28;19915;-72
2023/12/06 09:27:36;;;;;;;;;;;15.00;99.90;;;;;;5116047;28;19912;-73
2023/12/06 09:30:03;;;;;;;;;;;15.20;99.90;;;;;;5116351;28;19930;-74
2023/12/06 09:32:29;;;;;;;;;;;15.30;99.90;;;;;;5115984;28;19937;-73
2023/12/06 09:34:55;;;;;;;;;;;15.30;99.90;;;;;;5116074;28;19947;-76
2023/12/06 09:37:21;;;;;;;;;;;15.20;99.90;;;;;;5115837;28;19908;-75
2023/12/06 09:39:47;;;;;;;;;;;15.30;99.90;;;;;;5131237;27;19957;-75
2023/12/06 09:42:13;;;;;;;;;;;15.40;99.90;;;;;;5116115;28;19915;-74
2023/12/06 09:44:41;;;;;;;;;;;15.50;99.90;;;;;;5115910;28;19980;-78
2023/12/06 09:47:06;;;;;;;;;;;15.60;99.90;;;;;;5115434;28;19915;-74
2023/12/06 09:49:32;;;;;;;;;;;15.80;99.90;;;;;;5116887;27;20327;-74
2023/12/06 09:52:07;;;;;;;;;;;15.90;99.90;;;;;;5094236;28;20330;-74
2023/12/06 09:54:33;;;;;;;;;;;15.90;99.90;;;;;;5093840;28;20225;-77
2023/12/06 09:56:59;;;;;;;;;;;16.00;99.90;;;;;;5092253;28;19908;-75
2023/12/06 09:59:25;;;;;;;;;;;16.10;99.90;;;;;;5094311;28;20344;-72
2023/12/06 10:01:51;;;;;;;;;;;15.90;99.90;;;;;;5094542;28;20027;-75
2023/12/06 10:04:16;;;;;;;;;;;15.80;99.90;;;;;;5114754;28;19948;-74
2023/12/06 10:06:42;;;;;;;;;;;15.90;99.90;;;;;;5114975;28;20308;-74
2023/12/06 10:09:10;;;;;;;;;;;15.90;99.90;;;;;;5114889;28;19908;-75
2023/12/06 10:11:36;;;;;;;;;;;16.10;99.90;;;;;;5114912;28;20084;-78
2023/12/06 10:14:02;;;;;;;;;;;16.20;99.90;;;;;;5114600;28;20354;-72
2023/12/06 10:16:30;;;;;;;;;;;16.30;99.90;;;;;;5114821;28;20002;-72
2023/12/06 10:18:56;;;;;;;;;;;16.30;99.90;;;;;;5098970;28;20426;-73
2023/12/06 10:21:22;;;;;;;;;;;16.40;99.90;;;;;;5076254;28;19926;-71
2023/12/06 10:23:55;;;;;;;;;;;16.50;99.90;;;;;;5094256;28;19990;-72
2023/12/06 10:26:24;;;;;;;;;;;16.60;99.90;;;;;;5095448;28;19985;-72
2023/12/06 10:28:50;;;;;;;;;;;16.60;99.90;;;;;;5075466;28;19912;-71
2023/12/06 10:31:17;;;;;;;;;;;16.60;99.90;;;;;;5076003;28;19928;-73
2023/12/06 10:33:43;;;;;;;;;;;16.60;99.90;;;;;;5080932;28;19969;-72
2023/12/06 10:36:11;;;;;;;;;;;16.80;99.90;;;;;;5094564;28;19908;-72
2023/12/06 10:38:37;;;;;;;;;;;16.80;99.90;;;;;;5094573;28;20340;-72
2023/12/06 10:41:04;;;;;;;;;;;16.50;99.90;;;;;;5094336;28;19909;-72
2023/12/06 10:43:31;;;;;;;;;;;16.60;99.90;;;;;;5075376;28;19908;-71
2023/12/06 10:45:58;;;;;;;;;;;16.20;99.90;;;;;;5093487;28;19931;-72
2023/12/06 10:48:24;;;;;;;;;;;16.00;99.90;;;;;;5093838;28;19908;-70
2023/12/06 10:50:52;;;;;;;;;;;16.10;99.90;;;;;;5087913;28;19928;-72
2023/12/06 10:53:19;;;;;;;;;;;16.10;99.90;;;;;;5094043;28;19908;-74
2023/12/06 10:55:46;;;;;;;;;;;16.20;99.90;;;;;;5093901;28;19912;-78
2023/12/06 10:58:16;;;;;;;;;;;16.30;99.90;;;;;;5094079;28;19909;-78
2023/12/06 11:00:42;;;;;;;;;;;16.40;99.90;;;;;;5065269;28;19952;-76
2023/12/06 11:03:09;;;;;;;;;;;16.50;99.90;;;;;;5084216;28;19908;-77
2023/12/06 11:05:39;;;;;;;;;;;16.50;99.90;;;;;;5093170;28;19979;-76
2023/12/06 11:08:23;;;;;;;;;;;16.70;99.90;;;;;;5093665;28;19958;-73
2023/12/06 11:11:07;;;;;;;;;;;16.60;99.90;;;;;;5093255;28;19938;-77
2023/12/06 11:13:42;;;;;;;;;;;16.70;99.90;;;;;;5092134;28;22137;-77
2023/12/06 11:16:26;;;;;;;;;;;16.70;99.90;;;;;;5075131;28;19985;-75
2023/12/06 11:18:52;;;;;;;;;;;16.60;99.90;;;;;;5092580;28;19908;-76
2023/12/06 11:21:20;;;;;;;;;;;16.50;99.90;;;;;;5093063;28;19909;-75
2023/12/06 11:23:48;;;;;;;;;;;16.30;99.90;;;;;;5092831;28;19908;-76
2023/12/06 11:26:14;;;;;;;;;;;16.40;99.90;;;;;;5092966;28;20372;-77
2023/12/06 11:28:41;;;;;;;;;;;16.30;99.90;;;;;;5093194;28;19943;-77
2023/12/06 11:31:07;;;;;;;;;;;16.40;99.90;;;;;;5092907;28;19939;-74
2023/12/06 11:33:33;;;;;;;;;;;16.40;99.90;;;;;;5092808;28;20126;-75
2023/12/06 11:36:00;;;;;;;;;;;16.40;99.90;;;;;;5092746;28;19915;-75
2023/12/06 11:38:33;;;;;;;;;;;16.30;99.90;;;;;;5092654;28;19916;-78
2023/12/06 11:40:59;;;;;;;;;;;16.30;99.90;;;;;;5092986;28;19908;-71
2023/12/06 11:43:43;;;;;;;;;;;16.30;99.90;;;;;;5092845;28;19986;-78
2023/12/06 11:46:10;;;;;;;;;;;16.40;99.90;;;;;;5092644;28;19908;-77
2023/12/06 11:48:37;;;;;;;;;;;16.40;99.90;;;;;;5092471;28;19908;-75
2023/12/06 11:51:06;;;;;;;;;;;16.30;99.90;;;;;;5092655;28;19923;-77
2023/12/06 11:53:34;;;;;;;;;;;16.30;99.90;;;;;;5092605;28;19908;-77
2023/12/06 11:56:00;;;;;;;;;;;16.30;99.90;;;;;;5092949;28;20011;-78
2023/12/06 11:58:30;;;;;;;;;;;16.40;99.90;;;;;;5074279;28;20010;-76
2023/12/06 12:00:57;;;;;;;;;;;16.30;99.90;;;;;;5104034;28;19986;-77
2023/12/06 12:03:28;;;;;;;;;;;16.30;99.90;;;;;;5226147;22;20061;-76
2023/12/06 12:05:55;;;;;;;;;;;16.30;99.90;;;;;;5074707;28;19935;-76
2023/12/06 12:08:21;;;;;;;;;;;16.30;99.90;;;;;;5091719;28;19911;-76
2023/12/06 12:10:47;;;;;;;;;;;16.30;99.90;;;;;;5091738;28;19923;-77
2023/12/06 12:13:19;;;;;;;;;;;16.30;99.90;;;;;;5092315;28;19908;-76
2023/12/06 12:16:05;;;;;;;;;;;16.20;99.90;;;;;;5092400;28;20007;-76
2023/12/06 12:18:37;;;;;;;;;;;16.20;99.90;;;;;;5092739;28;19918;-76
2023/12/06 12:21:19;;;;;;;;;;;16.10;99.90;;;;;;5092778;28;20269;-77
2023/12/06 12:23:45;;;;;;;;;;;16.10;99.90;;;;;;5093571;28;19908;-75
2023/12/06 12:26:18;;;;;;;;;;;16.00;99.90;;;;;;5092673;28;19916;-76
2023/12/06 12:28:45;;;;;;;;;;;16.00;99.90;;;;;;5093079;28;19908;-75
2023/12/06 12:31:22;;;;;;;;;;;16.10;99.90;;;;;;5092454;28;20402;-76
2023/12/06 12:33:51;;;;;;;;;;;16.10;99.90;;;;;;5092345;28;19912;-76
2023/12/06 12:36:17;;;;;;;;;;;16.20;99.90;;;;;;5092398;28;19965;-74
2023/12/06 12:38:45;;;;;;;;;;;16.10;99.90;;;;;;5073864;28;19908;-75
2023/12/06 12:41:14;;;;;;;;;;;15.90;99.90;;;;;;5092330;28;20283;-78
2023/12/06 12:43:41;;;;;;;;;;;16.00;99.90;;;;;;5093055;28;19916;-77
2023/12/06 12:46:13;;;;;;;;;;;16.10;99.90;;;;;;5092244;28;19908;-76
2023/12/06 12:48:39;;;;;;;;;;;16.10;99.90;;;;;;5092296;28;20456;-72
2023/12/06 12:51:12;;;;;;;;;;;16.10;99.90;;;;;;5091056;28;19981;-76
2023/12/06 12:53:47;;;;;;;;;;;16.20;99.90;;;;;;5092279;28;19934;-73
2023/12/06 12:56:14;;;;;;;;;;;16.20;99.90;;;;;;5092176;28;19908;-73
2023/12/06 12:58:39;;;;;;;;;;;16.10;99.90;;;;;;5092371;28;19908;-76
2023/12/06 13:01:07;;;;;;;;;;;15.70;99.90;;;;;;5092204;28;19916;-75
2023/12/06 13:03:33;;;;;;;;;;;15.60;99.90;;;;;;5091415;28;19920;-76
2023/12/06 13:05:59;;;;;;;;;;;15.70;99.90;;;;;;5092110;28;20024;-69
2023/12/06 13:08:30;;;;;;;;;;;15.80;99.90;;;;;;5074379;28;20322;-76
2023/12/06 13:10:56;;;;;;;;;;;15.60;99.90;;;;;;5074860;28;19916;-77
2023/12/06 13:13:22;;;;;;;;;;;15.50;99.90;;;;;;5092717;28;19956;-76
2023/12/06 13:15:57;;;;;;;;;;;15.60;99.90;;;;;;5092725;28;19961;-76
2023/12/06 13:18:23;;;;;;;;;;;15.40;99.90;;;;;;5091756;28;19939;-75
2023/12/06 13:20:50;;;;;;;;;;;15.10;99.90;;;;;;5092392;28;19914;-75
2023/12/06 13:23:17;;;;;;;;;;;14.90;99.90;;;;;;5092705;28;20364;-76
2023/12/06 13:25:43;;;;;;;;;;;15.00;99.90;;;;;;5092601;28;19908;-76
2023/12/06 13:28:15;;;;;;;;;;;15.00;99.90;;;;;;5092795;28;20050;-76
2023/12/06 13:30:41;;;;;;;;;;;14.90;99.90;;;;;;5093868;28;19976;-75
2023/12/06 13:33:07;;;;;;;;;;;14.90;99.90;;;;;;5095016;28;19908;-74
2023/12/06 13:35:34;;;;;;;;;;;14.80;99.90;;;;;;5096002;28;19961;-76
2023/12/06 13:38:03;;;;;;;;;;;14.90;99.90;;;;;;5095439;28;19957;-75
2023/12/06 13:40:29;;;;;;;;;;;15.10;99.90;;;;;;5077815;28;19916;-76
2023/12/06 13:42:57;;;;;;;;;;;15.20;99.90;;;;;;5096360;28;19909;-76
2023/12/06 13:45:26;;;;;;;;;;;15.30;99.90;;;;;;5096091;28;19914;-75
2023/12/06 13:47:51;;;;;;;;;;;15.40;99.90;;;;;;5096022;28;19927;-75
2023/12/06 13:50:17;;;;;;;;;;;15.40;99.90;;;;;;5093042;28;19916;-75
2023/12/06 13:52:43;;;;;;;;;;;15.50;99.90;;;;;;5075463;28;19963;-75
2023/12/06 13:55:09;;;;;;;;;;;15.50;99.90;;;;;;5088841;28;19915;-75
2023/12/06 13:57:35;;;;;;;;;;;15.40;99.90;;;;;;5096044;28;19908;-73
2023/12/06 14:00:00;;;;;;;;;;;15.30;99.90;;;;;;5095835;28;19912;-75
2023/12/06 14:02:26;;;;;;;;;;;15.10;99.90;;;;;;5073666;28;19993;-75
2023/12/06 14:04:52;;;;;;;;;;;15.00;99.90;;;;;;5075180;28;19986;-74
2023/12/06 14:07:18;;;;;;;;;;;15.00;99.90;;;;;;5075567;28;20304;-75
2023/12/06 14:09:44;;;;;;;;;;;15.00;99.90;;;;;;5075107;28;19909;-74
2023/12/06 14:12:10;;;;;;;;;;;15.00;99.90;;;;;;5075331;28;20014;-74
2023/12/06 14:14:35;;;;;;;;;;;15.10;99.90;;;;;;5075631;28;19909;-74